Latest Weather Observations for Charleville

IDQ60801

Issued at 10:12 pm EST Tuesday 4 August 2020 (issued every 10 minutes, with the page automatically refreshed every 10 minutes)

About weather observations | Map of weather stations | Latest weather observations for QLD | Other Formats
Station Details ID: 044021 Name: CHARLEVILLE AERO Lat: -26.41 Lon: 146.26 Height: 301.6 m
Data from the previous 72 hours. | See also: Recent months at Charleville
Date/Time
EST
Temp
°C
App
Temp
°C
Dew
Point
°C
Rel
Hum
%
Delta-T
°C
Wind Press
QNH
hPa
Press
MSL
hPa
Rain since
9am
mm
Dir  Spd
km/h
Gust
km/h
Spd
kts
Gust
kts
04/10:00pm 11.2 9.4 1.2 50 4.3 CALM 0 0 0 0 1015.0 1014.7 0.0
04/09:30pm 11.7 9.9 1.1 48 4.5 CALM 0 0 0 0 1014.9 1014.6 0.0
04/09:00pm 12.5 10.7 1.2 46 4.9 CALM 0 0 0 0 1014.8 1014.5 0.0
04/08:30pm 13.4 11.6 1.1 43 5.3 CALM 0 0 0 0 1014.7 1014.4 0.0
04/08:00pm 14.3 12.1 0.9 40 5.8 SE 2 6 1 3 1014.4 1014.2 0.0
04/07:30pm 15.5 13.7 0.9 37 6.4 CALM 0 0 0 0 1014.2 1014.0 0.0
04/07:00pm 16.9 13.9 0.5 33 7.2 SSE 6 7 3 4 1013.8 1013.6 0.0
04/06:30pm 18.6 15.4 0.7 30 8.1 SSW 7 9 4 5 1013.6 1013.4 0.0
04/06:00pm 20.9 17.3 0.7 26 9.3 SW 9 9 5 5 1013.3 1013.1 0.0
04/05:30pm 23.6 20.0 0.7 22 10.7 WSW 9 13 5 7 1013.1 1012.9 0.0
04/05:00pm 24.7 21.1 0.9 21 11.3 W 9 15 5 8 1012.8 1012.5 0.0
04/04:30pm 25.3 21.3 0.8 20 11.6 W 11 17 6 9 1012.8 1012.5 0.0
04/04:00pm 25.0 20.6 0.5 20 11.6 WSW 13 28 7 15 1012.8 1012.5 0.0
04/03:30pm 25.2 20.9 0.7 20 11.6 W 13 20 7 11 1012.8 1012.5 0.0
04/03:00pm 24.9 19.5 1.1 21 11.3 WNW 19 28 10 15 1013.0 1012.8 0.0
04/02:30pm 25.1 20.8 1.3 21 11.4 WSW 13 22 7 12 1013.2 1013.0 0.0
04/02:00pm 24.7 20.5 1.6 22 11.1 WSW 13 20 7 11 1013.6 1013.4 0.0
04/01:30pm 24.0 18.6 1.0 22 10.9 W 19 30 10 16 1014.1 1013.9 0.0
04/01:00pm 23.7 18.7 1.4 23 10.6 WNW 17 26 9 14 1014.6 1014.3 0.0
04/12:30pm 23.8 19.7 2.0 24 10.5 W 13 22 7 12 1015.2 1014.9 0.0
04/12:00pm 23.2 18.7 2.1 25 10.1 NW 15 20 8 11 1015.8 1015.6 0.0
04/11:30am 22.7 18.2 2.2 26 9.8 WNW 15 20 8 11 1016.2 1016.0 0.0
04/11:00am 22.3 18.3 2.9 28 9.4 NNW 13 20 7 11 1016.6 1016.4 0.0
04/10:30am 20.2 16.5 2.5 31 8.4 N 11 15 6 8 1016.7 1016.5 0.0
04/10:00am 18.9 15.3 3.1 35 7.5 N 11 15 6 8 1016.9 1016.7 0.0
04/09:30am 16.6 12.6 3.0 40 6.3 N 13 19 7 10 1016.9 1016.7 0.0
04/09:00am 14.3 10.7 3.2 47 5.1 N 11 17 6 9 1017.0 1016.8 0.0
04/08:30am 12.2 8.5 2.4 51 4.3 N 11 13 6 7 1016.9 1016.7 0.0
04/08:00am 10.6 7.7 2.4 57 3.6 NNW 7 9 4 5 1016.4 1016.2 0.0
04/07:30am 8.7 5.7 2.1 63 2.8 NNE 7 7 4 4 1016.1 1015.9 0.0
04/07:00am 7.8 4.8 1.9 66 2.5 NNE 7 9 4 5 1015.9 1015.7 0.0
04/06:30am 7.7 3.6 2.0 67 2.4 NE 13 15 7 8 1015.6 1015.3 0.0
04/06:00am 6.5 4.4 1.8 72 1.9 NE 2 7 1 4 1015.4 1015.1 0.0
04/05:30am 7.0 5.3 1.9 70 2.1 CALM 0 0 0 0 1015.5 1015.2 0.0
04/05:00am 6.5 3.6 1.6 71 2.0 E 6 7 3 4 1015.3 1015.0 0.0
04/04:30am 7.2 5.5 1.9 69 2.2 CALM 0 0 0 0 1015.5 1015.2 0.0
04/04:00am 7.6 5.6 2.1 68 2.3 WNW 2 7 1 4 1015.8 1015.6 0.0
04/03:30am 8.2 6.5 2.0 65 2.6 CALM 0 6 0 3 1015.7 1015.5 0.0
04/03:00am 8.4 5.1 2.2 65 2.6 NE 9 11 5 6 1015.8 1015.6 0.0
04/02:30am 8.5 6.8 2.1 64 2.7 CALM 0 4 0 2 1016.1 1015.9 0.0
04/02:00am 8.7 7.1 2.3 64 2.7 CALM 0 0 0 0 1016.0 1015.8 0.0
04/01:30am 9.5 6.3 2.8 63 2.9 N 9 9 5 5 1016.3 1016.1 0.0
04/01:00am 10.0 8.4 2.6 60 3.2 CALM 0 0 0 0 1016.4 1016.2 0.0
04/12:30am 10.4 7.2 3.0 60 3.3 WNW 9 15 5 8 1016.5 1016.3 0.0
04/12:00am 10.4 8.8 2.5 58 3.4 CALM 0 0 0 0 1016.4 1016.2 0.0
 
Date/Time
EST
Temp
°C
App
Temp
°C
Dew
Point
°C
Rel
Hum
%
Delta-T
°C
Wind Press
QNH
hPa
Press
MSL
hPa
Rain since
9am
mm
Dir  Spd
km/h
Gust
km/h
Spd
kts
Gust
kts
03/11:30pm 10.4 8.8 2.3 57 3.5 CALM 0 0 0 0 1016.5 1016.3 0.0
03/11:00pm 11.1 9.5 2.4 55 3.8 CALM 0 0 0 0 1016.5 1016.3 0.0
03/10:30pm 11.2 9.5 2.0 53 4.0 CALM 0 0 0 0 1016.6 1016.4 0.0
03/10:00pm 12.1 9.8 2.6 52 4.2 NE 4 11 2 6 1016.7 1016.5 0.0
03/09:30pm 12.2 9.3 2.6 52 4.3 ESE 7 9 4 5 1016.6 1016.4 0.0
03/09:00pm 12.5 9.6 2.4 50 4.5 SE 7 7 4 4 1016.5 1016.3 0.0
03/08:30pm 13.2 10.4 2.1 47 4.9 SE 6 7 3 4 1016.3 1016.1 0.0
03/08:00pm 14.2 11.4 2.1 44 5.4 ESE 6 7 3 4 1016.0 1015.8 0.0
03/07:30pm 14.8 11.9 2.4 43 5.6 ESE 7 9 4 5 1016.0 1015.8 0.0
03/07:00pm 15.9 13.1 2.0 39 6.3 SE 6 7 3 4 1016.0 1015.8 0.0
03/06:30pm 17.4 14.5 1.4 34 7.2 ESE 6 7 3 4 1015.7 1015.5 0.0
03/06:00pm 19.4 16.5 1.4 30 8.3 ESE 6 6 3 3 1015.5 1015.2 0.0
03/05:30pm 21.7 18.7 1.9 27 9.4 SE 7 7 4 4 1015.4 1015.1 0.0
03/05:00pm 22.8 20.0 1.8 25 10.0 E 6 9 3 5 1015.4 1015.1 0.0
03/04:30pm 22.4 19.6 2.0 26 9.7 WNW 6 9 3 5 1015.3 1015.0 0.0
03/04:00pm 23.4 20.7 2.8 26 10.0 SSW 6 9 3 5 1015.3 1015.0 0.0
03/03:30pm 22.8 20.3 1.8 25 10.0 S 4 13 2 7 1015.4 1015.1 0.0
03/03:00pm 22.8 18.7 2.3 26 9.8 NNE 13 22 7 12 1015.7 1015.5 0.0
03/02:30pm 23.1 18.8 3.1 27 9.8 NNE 15 26 8 14 1015.9 1015.7 0.0
03/02:00pm 22.8 19.9 2.8 27 9.7 WSW 7 13 4 7 1016.5 1016.3 0.0
03/01:30pm 22.8 19.3 3.4 28 9.5 ENE 11 17 6 9 1017.0 1016.8 0.0
03/01:00pm 22.4 19.6 3.0 28 9.4 ENE 7 13 4 7 1017.7 1017.5 0.0
03/12:30pm 22.3 19.5 3.4 29 9.2 NNW 7 20 4 11 1018.4 1018.1 0.0
03/12:00pm 22.1 17.8 3.3 29 9.1 N 15 26 8 14 1019.1 1018.9 0.0
03/11:30am 21.5 17.3 3.7 31 8.7 N 15 24 8 13 1019.5 1019.3 0.0
03/11:00am 21.0 16.6 4.6 34 8.1 NNE 17 28 9 15 1020.2 1020.0 0.0
03/10:30am 19.7 14.9 4.6 37 7.4 N 19 28 10 15 1020.6 1020.4 0.0
03/10:00am 18.9 15.0 5.4 41 6.7 N 15 24 8 13 1021.0 1020.8 0.0
03/09:30am 17.8 13.5 5.4 44 6.1 NNE 17 28 9 15 1020.8 1020.6 0.0
03/09:00am 15.9 10.8 4.0 45 5.6 NNE 20 30 11 16 1020.8 1020.6 0.0
03/08:30am 14.3 9.6 3.2 47 5.1 NNE 17 26 9 14 1020.7 1020.5 0.0
03/08:00am 11.2 7.4 1.7 52 4.1 NNE 11 15 6 8 1020.5 1020.3 0.0
03/07:30am 8.1 6.0 1.7 64 2.7 NNE 2 7 1 4 1020.3 1020.1 0.0
03/07:00am 5.2 3.2 0.0 69 2.0 CALM 0 7 0 4 1020.1 1019.9 0.0
03/06:30am 5.2 3.2 -0.2 68 2.1 CALM 0 0 0 0 1019.8 1019.6 0.0
03/06:00am 5.3 3.2 -0.5 66 2.2 CALM 0 0 0 0 1019.4 1019.2 0.0
03/05:30am 5.6 3.5 -0.7 64 2.4 CALM 0 0 0 0 1019.1 1018.9 0.0
03/05:00am 5.9 3.8 -0.6 63 2.5 CALM 0 0 0 0 1019.1 1018.9 0.0
03/04:30am 6.3 4.2 -0.7 61 2.7 CALM 0 0 0 0 1019.0 1018.8 0.0
03/04:00am 6.7 4.6 -0.7 59 2.9 CALM 0 0 0 0 1019.0 1018.8 0.0
03/03:30am 6.8 3.5 -0.9 58 3.0 SE 6 7 3 4 1019.1 1018.9 0.0
03/03:00am 7.0 3.5 -1.4 55 3.2 SE 7 9 4 5 1019.4 1019.2 0.0
03/02:30am 7.4 4.8 -1.8 52 3.5 ESE 2 6 1 3 1019.6 1019.4 0.0
03/02:00am 8.2 4.6 -1.9 49 3.9 SE 7 7 4 4 1019.9 1019.7 0.0
03/01:30am 9.3 7.0 -2.0 45 4.4 CALM 0 0 0 0 1020.0 1019.8 0.0
03/01:00am 10.6 7.2 -2.4 40 5.0 E 6 9 3 5 1020.2 1020.0 0.0
03/12:30am 13.0 9.0 -2.5 34 6.2 ESE 9 13 5 7 1020.2 1020.0 0.0
03/12:00am 12.8 8.4 -2.3 35 6.0 ESE 11 15 6 8 1020.3 1020.1 0.0
 
Date/Time
EST
Temp
°C
App
Temp
°C
Dew
Point
°C
Rel
Hum
%
Delta-T
°C
Wind Press
QNH
hPa
Press
MSL
hPa
Rain since
9am
mm
Dir  Spd
km/h
Gust
km/h
Spd
kts
Gust
kts
02/11:30pm 11.8 7.0 -2.4 37 5.6 E 13 15 7 8 1020.5 1020.3 0.0
02/11:00pm 12.2 8.1 -3.2 34 6.0 SE 9 11 5 6 1020.5 1020.3 0.0
02/10:30pm 12.7 8.3 -2.3 35 6.0 SSE 11 11 6 6 1020.6 1020.4 0.0
02/10:00pm 11.5 7.5 -2.3 38 5.4 SE 9 11 5 6 1020.7 1020.5 0.0
02/09:30pm 12.4 8.4 -2.2 36 5.8 SE 9 11 5 6 1020.7 1020.5 0.0
02/09:00pm 12.7 8.7 -2.3 35 6.0 SE 9 9 5 5 1020.6 1020.4 0.0
02/08:30pm 13.4 9.0 -2.1 34 6.3 SE 11 11 6 6 1020.5 1020.3 0.0
02/08:00pm 13.5 9.5 -2.0 34 6.3 SE 9 11 5 6 1020.5 1020.3 0.0
02/07:30pm 14.3 10.8 -2.6 31 6.8 SE 6 9 3 5 1020.4 1020.2 0.0
02/07:00pm 16.2 12.5 -2.8 27 7.7 SE 7 7 4 4 1020.3 1020.1 0.0
02/06:30pm 17.8 13.8 -2.5 25 8.5 SE 9 11 5 6 1020.1 1019.9 0.0
02/06:00pm 19.3 15.5 -3.5 21 9.4 SSE 7 9 4 5 1020.0 1019.8 0.0
02/05:30pm 22.0 17.9 -3.4 18 10.8 SSE 9 13 5 7 1019.9 1019.7 0.0
02/05:00pm 23.6 19.3 -1.3 19 11.2 S 11 17 6 9 1019.9 1019.7 0.0
02/04:30pm 23.2 18.9 -1.7 19 11.1 SSE 11 17 6 9 1020.0 1019.8 0.0
02/04:00pm 23.4 19.5 -1.5 19 11.1 SSE 9 15 5 8 1020.1 1019.9 0.0
02/03:30pm 23.3 18.2 -1.6 19 11.1 SSE 15 26 8 14 1020.1 1019.9 0.0
02/03:00pm 23.1 19.2 -1.8 19 11.0 SE 9 15 5 8 1020.4 1020.2 0.0
02/02:30pm 23.1 19.2 -1.8 19 11.1 ENE 9 15 5 8 1020.4 1020.2 0.0
02/02:00pm 22.6 18.5 -2.9 18 11.0 ESE 9 17 5 9 1020.8 1020.6 0.0
02/01:30pm 22.7 19.3 -0.7 21 10.6 WNW 7 11 4 6 1021.2 1021.0 0.0
02/01:00pm 22.6 19.4 -0.8 21 10.5 W 6 13 3 7 1021.9 1021.7 0.0
02/12:30pm 21.7 17.8 -1.6 21 10.3 SW 9 15 5 8 1022.6 1022.4 0.0
02/12:00pm 21.9 17.4 -0.1 23 10.0 NNW 13 17 7 9 1023.2 1023.0 0.0
02/11:30am 20.8 16.6 1.6 28 9.0 N 13 19 7 10 1023.9 1023.7 0.0
02/11:00am 20.3 15.0 1.7 29 8.6 N 19 28 10 15 1024.2 1024.1 0.0
02/10:30am 19.0 14.7 1.1 30 8.1 N 13 19 7 10 1024.5 1024.4 0.0
02/10:00am 18.0 13.6 0.2 30 7.8 NNE 13 17 7 9 1024.6 1024.5 0.0
02/09:30am 16.3 12.0 0.8 35 6.9 N 13 17 7 9 1024.7 1024.6 0.0
02/09:00am 14.1 10.5 0.7 40 5.8 NNE 9 13 5 7 1024.7 1024.6 0.0
02/08:30am 12.3 10.1 1.0 46 4.8 NNE 2 7 1 4 1024.7 1024.6 0.0
02/08:00am 8.6 5.9 0.6 57 3.3 N 4 7 2 4 1024.5 1024.4 0.0
02/07:30am 5.5 3.6 0.5 70 2.0 CALM 0 0 0 0 1024.4 1024.3 0.0
02/07:00am 3.4 1.3 -0.8 74 1.6 CALM 0 0 0 0 1024.2 1024.1 0.0
02/06:30am 3.2 1.0 -1.2 73 1.6 CALM 0 7 0 4 1023.9 1023.7 0.0
02/06:00am 3.5 1.4 -0.9 73 1.6 CALM 0 0 0 0 1023.6 1023.4 0.0
02/05:30am 3.9 1.8 -0.9 71 1.8 CALM 0 0 0 0 1023.0 1022.8 0.0
02/05:00am 4.1 2.0 -0.9 70 1.9 CALM 0 0 0 0 1022.6 1022.4 0.0
02/04:30am 4.6 2.5 -0.8 68 2.0 CALM 0 0 0 0 1022.6 1022.4 0.0
02/04:00am 5.1 2.6 -0.7 66 2.2 ESE 2 6 1 3 1022.7 1022.5 0.0
02/03:30am 5.4 2.2 -0.6 65 2.3 SE 6 7 3 4 1022.7 1022.5 0.0
02/03:00am 5.8 3.7 -0.7 63 2.5 CALM 0 0 0 0 1022.7 1022.5 0.0
02/02:30am 6.1 4.0 -0.6 62 2.6 CALM 0 0 0 0 1022.8 1022.6 0.0
02/02:00am 6.7 4.7 -0.3 61 2.7 CALM 0 0 0 0 1023.1 1022.9 0.0
02/01:30am 6.9 4.8 -0.5 59 2.9 CALM 0 0 0 0 1023.2 1023.0 0.0
02/01:00am 7.6 5.5 -0.6 56 3.2 CALM 0 0 0 0 1023.2 1023.0 0.0
02/12:30am 8.4 6.3 -0.6 53 3.6 CALM 0 0 0 0 1023.3 1023.1 0.0
02/12:00am 8.8 6.4 -0.5 52 3.7 ESE 2 7 1 4 1023.3 1023.1 0.0
 
Date/Time
EST
Temp
°C
App
Temp
°C
Dew
Point
°C
Rel
Hum
%
Delta-T
°C
Wind Press
QNH
hPa
Press
MSL
hPa
Rain since
9am
mm
Dir  Spd
km/h
Gust
km/h
Spd
kts
Gust
kts
01/11:30pm 9.5 6.1 -0.7 49 4.1 ESE 7 9 4 5 1023.0 1022.8 0.0
01/11:00pm 11.2 7.5 -0.3 45 4.7 ESE 9 11 5 6 1023.1 1022.9 0.0
01/10:30pm 11.1 7.0 -0.1 46 4.6 ESE 11 11 6 6 1023.1 1022.9 0.0

Other formats

Comma delimited format used in spreadsheet applications
http://www.bom.gov.au/fwo/IDQ60801/IDQ60801.94510.axf

JavaScript Object Notation format (JSON) in row-major order
http://www.bom.gov.au/fwo/IDQ60801/IDQ60801.94510.json

Data quality

Most of these data are generated automatically and are frequently updated. Quality checks on data are not normally performed. It is possible for incorrect values to appear. Refer to information at About Latest Weather Observations and please check the disclaimer before using these data.